CheckWX is a tool to help pilots better visualize weather data.  It is not intended as a substitute for an official pre-flight weather briefing.

16:34:29 UTC

EGVN TAF
RAF Brize Norton Airport
Brize Norton, United Kingdom
TAF EGVN 191359Z 1915/2015 11005KT 8000 BKN035 PROB40 1915/1919 6000 HZ BECMG 1919/1922 7000 HZ PROB30 1922/2007 2000 BR BECMG 2007/2010 9999 NSW

Nov-19@
15:00 UTC

Nov-19 @ 15:00 UTC

Nov-19@
19:00 UTC

Nov-19 @ 19:00 UTC

TAF EGVN 191359Z 1915/2015 11005KT 8000 BKN035
Wind
  • 110° at 5 KTS
Cloud Levels
  • Broken at 3,500' AGL

Nov-19@
15:00 UTC

Nov-19 @ 15:00 UTC

Nov-19@
19:00 UTC

Nov-19 @ 19:00 UTC

PROB40 1915/1919 6000 HZ

Probable - 40% Likelihood

Probable - 40% Likelihood during this time.

Conditions
Haze

Nov-19@
19:00 UTC

Nov-19 @ 19:00 UTC

Nov-20@
07:00 UTC

Nov-20 @ 07:00 UTC

BECMG 1919/1922 7000 HZ

Becoming

Becoming Conditions expected by Tue, Nov 19, 2019 @ 22:00 UTC

Wind
  • 110° at 5 KTS
Conditions
Haze
Cloud Levels
  • Broken at 3,500' AGL

Nov-19@
22:00 UTC

Nov-19 @ 22:00 UTC

Nov-20@
07:00 UTC

Nov-20 @ 07:00 UTC

PROB30 1922/2007 2000 BR

Probable - 30% Likelihood

Probable - 30% Likelihood during this time.

Conditions
Mist

Nov-20@
07:00 UTC

Nov-20 @ 07:00 UTC

Nov-20@
15:00 UTC

Nov-20 @ 15:00 UTC

BECMG 2007/2010 9999 NSW

Becoming

Becoming Conditions expected by Wed, Nov 20, 2019 @ 10:00 UTC

Wind
  • 110° at 5 KTS
Conditions
No significant weather
Cloud Levels
  • Broken at 3,500' AGL